createdAt,value
2018-03-04T00:01:56.332Z,79.30
2018-03-04T00:04:23.978Z,79.50
2018-03-04T00:06:52.389Z,80.00
2018-03-04T00:09:20.020Z,80.10
2018-03-04T00:11:48.449Z,80.00
2018-03-04T00:14:16.077Z,80.00
2018-03-04T00:16:44.481Z,78.70
2018-03-04T00:19:12.121Z,78.60
2018-03-04T00:21:40.528Z,78.40
2018-03-04T00:24:08.164Z,78.30
2018-03-04T00:26:35.808Z,78.60
2018-03-04T00:29:03.457Z,77.90
2018-03-04T00:31:31.093Z,78.20
2018-03-04T00:33:58.732Z,78.10
2018-03-04T00:36:27.128Z,78.40
2018-03-04T00:38:54.801Z,78.30
2018-03-04T00:41:22.431Z,78.40
2018-03-04T00:43:50.076Z,77.90
2018-03-04T00:46:17.716Z,78.20
2018-03-04T00:48:45.356Z,77.90
2018-03-04T00:51:12.997Z,78.00
2018-03-04T00:53:40.641Z,78.50
2018-03-04T00:56:08.276Z,78.70
2018-03-04T00:58:40.003Z,78.70
2018-03-04T01:01:07.632Z,78.10
2018-03-04T01:03:35.289Z,78.30
2018-03-04T01:06:02.940Z,78.10
2018-03-04T01:08:30.583Z,78.30
2018-03-04T01:10:59.008Z,78.20
2018-03-04T01:13:26.645Z,78.10
2018-03-04T01:15:54.279Z,78.40
2018-03-04T01:18:21.925Z,78.10
2018-03-04T01:20:49.556Z,77.30
2018-03-04T01:23:17.189Z,77.60
2018-03-04T01:25:45.597Z,77.60
2018-03-04T01:28:13.246Z,77.50
2018-03-04T01:30:40.888Z,77.20
2018-03-04T01:33:08.536Z,76.90
2018-03-04T01:35:36.165Z,77.90
2018-03-04T01:38:03.818Z,78.60
2018-03-04T01:40:32.224Z,78.60
2018-03-04T01:42:59.863Z,78.60
2018-03-04T01:45:28.261Z,78.70
2018-03-04T01:47:55.903Z,78.60
2018-03-04T01:50:24.303Z,78.80
2018-03-04T01:52:51.966Z,78.80
2018-03-04T01:55:19.601Z,79.00
2018-03-04T01:57:47.233Z,79.00
2018-03-04T02:00:14.929Z,79.00
2018-03-04T02:02:42.573Z,78.60
2018-03-04T02:05:10.208Z,79.30
2018-03-04T02:07:37.848Z,79.00
2018-03-04T02:10:06.252Z,79.10
2018-03-04T02:12:33.924Z,79.10
2018-03-04T02:15:01.593Z,78.70
2018-03-04T02:17:29.232Z,78.80
2018-03-04T02:19:57.640Z,79.70
2018-03-04T02:22:25.276Z,79.70
2018-03-04T02:24:53.727Z,80.30
2018-03-04T02:27:21.361Z,80.20
2018-03-04T02:29:49.000Z,80.30
2018-03-04T02:32:17.404Z,80.80
2018-03-04T02:34:48.926Z,80.80
2018-03-04T02:37:16.622Z,80.80
2018-03-04T02:39:44.238Z,81.00
2018-03-04T02:42:11.872Z,82.60
2018-03-04T02:44:39.529Z,81.80
2018-03-04T02:47:07.168Z,82.00
2018-03-04T02:49:34.809Z,82.10
2018-03-04T02:52:02.454Z,82.30
2018-03-04T02:54:30.091Z,82.20
2018-03-04T02:56:57.726Z,82.30
2018-03-04T02:59:25.371Z,82.20
2018-03-04T03:01:53.014Z,82.70
2018-03-04T03:04:20.657Z,82.20
2018-03-04T03:06:48.314Z,82.80
2018-03-04T03:09:15.968Z,82.80
2018-03-04T03:11:44.380Z,83.10
2018-03-04T03:14:12.033Z,83.00
2018-03-04T03:16:39.668Z,83.40
2018-03-04T03:19:07.313Z,83.50
2018-03-04T03:21:34.949Z,83.60
2018-03-04T03:24:02.594Z,83.70
2018-03-04T03:26:30.998Z,84.30
2018-03-04T03:28:58.628Z,84.30
2018-03-04T03:31:27.250Z,84.00
2018-03-04T03:33:54.940Z,83.90
2018-03-04T03:36:22.580Z,84.30
2018-03-04T03:38:50.232Z,84.30
2018-03-04T03:41:18.636Z,83.80
2018-03-04T03:43:46.272Z,83.70
2018-03-04T03:46:14.691Z,83.50
2018-03-04T03:48:42.344Z,83.40
2018-03-04T03:51:09.992Z,83.80
2018-03-04T03:53:37.634Z,83.80
2018-03-04T03:56:05.557Z,84.60
2018-03-04T03:58:33.202Z,85.40
2018-03-04T04:01:11.602Z,85.10
2018-03-04T04:03:39.218Z,85.10
2018-03-04T04:06:06.865Z,85.30
2018-03-04T04:08:34.522Z,84.90
2018-03-04T04:11:02.148Z,85.30
2018-03-04T04:13:29.800Z,84.70
2018-03-04T04:15:57.457Z,85.10
2018-03-04T04:18:25.082Z,85.40
2018-03-04T04:20:53.481Z,86.50
2018-03-04T04:23:21.125Z,86.40
2018-03-04T04:25:49.568Z,86.40
2018-03-04T04:28:17.207Z,86.30
2018-03-04T04:30:44.855Z,86.20
2018-03-04T04:33:12.502Z,86.30
2018-03-04T04:35:40.900Z,85.80
2018-03-04T04:38:08.573Z,85.80
2018-03-04T04:40:36.212Z,85.30
2018-03-04T04:43:03.856Z,85.30
2018-03-04T04:45:31.492Z,85.50
2018-03-04T04:47:59.164Z,84.80
2018-03-04T04:50:26.792Z,84.90
2018-03-04T04:52:55.194Z,85.10
2018-03-04T04:55:22.863Z,85.10
2018-03-04T04:57:50.496Z,85.30
2018-03-04T05:00:20.817Z,86.10
2018-03-04T05:02:48.458Z,86.10
2018-03-04T05:05:16.126Z,86.80
2018-03-04T05:07:43.769Z,86.30
2018-03-04T05:10:11.406Z,86.70
2018-03-04T05:12:39.805Z,87.00
2018-03-04T05:15:07.474Z,86.90
2018-03-04T05:17:35.116Z,86.90
2018-03-04T05:20:03.508Z,86.90
2018-03-04T05:22:31.148Z,86.80
2018-03-04T05:24:58.784Z,86.50
2018-03-04T05:27:26.436Z,86.30
2018-03-04T05:29:54.068Z,86.50
2018-03-04T05:32:22.464Z,86.70
2018-03-04T05:34:50.100Z,86.70
2018-03-04T05:37:19.723Z,86.90
2018-03-04T05:39:48.124Z,86.90
2018-03-04T05:42:15.760Z,86.80
2018-03-04T05:44:43.397Z,87.00
2018-03-04T05:47:11.046Z,86.40
2018-03-04T05:49:38.676Z,86.30
2018-03-04T05:52:07.130Z,86.40
2018-03-04T05:54:35.671Z,86.30
2018-03-04T05:57:03.305Z,86.50
2018-03-04T05:59:31.704Z,86.80
2018-03-04T06:01:59.389Z,86.70
2018-03-04T06:04:27.770Z,87.00
2018-03-04T06:06:55.407Z,86.90
2018-03-04T06:09:23.811Z,86.30
2018-03-04T06:11:51.460Z,86.30
2018-03-04T06:14:19.876Z,86.10
2018-03-04T06:16:47.513Z,86.00
2018-03-04T06:19:15.904Z,86.80
2018-03-04T06:21:43.544Z,86.80
2018-03-04T06:24:11.192Z,86.80
2018-03-04T06:26:38.830Z,86.80
2018-03-04T06:29:06.472Z,87.00
2018-03-04T06:31:34.104Z,87.60
2018-03-04T06:34:01.762Z,86.80
2018-03-04T06:36:29.383Z,87.00
2018-03-04T06:38:57.016Z,87.10
2018-03-04T06:41:25.426Z,87.30
2018-03-04T06:43:53.063Z,87.30
2018-03-04T06:46:20.697Z,86.90
2018-03-04T06:48:48.329Z,86.70
2018-03-04T06:51:15.963Z,86.20
2018-03-04T06:53:43.599Z,86.30
2018-03-04T06:56:11.229Z,86.10
2018-03-04T06:58:38.855Z,86.40
2018-03-04T07:01:06.489Z,86.50
2018-03-04T07:03:35.116Z,86.50
2018-03-04T07:06:02.750Z,86.70
2018-03-04T07:08:30.376Z,86.60
2018-03-04T07:10:58.009Z,86.40
2018-03-04T07:13:25.657Z,86.60
2018-03-04T07:15:53.284Z,86.60
2018-03-04T07:18:20.924Z,87.00
2018-03-04T07:20:50.320Z,87.00
2018-03-04T07:23:17.948Z,87.00
2018-03-04T07:25:45.844Z,87.70
2018-03-04T07:28:17.425Z,87.00
2018-03-04T07:30:45.809Z,88.70
2018-03-04T07:33:14.205Z,88.70
2018-03-04T07:35:42.596Z,88.30
2018-03-04T07:38:10.224Z,88.30
2018-03-04T07:40:43.329Z,87.80
2018-03-04T07:43:10.949Z,86.50
2018-03-04T07:45:43.978Z,85.30
2018-03-04T07:48:11.661Z,84.80
2018-03-04T07:50:43.605Z,84.40
2018-03-04T07:53:12.181Z,84.40
2018-03-04T07:55:39.808Z,84.00
2018-03-04T07:58:07.426Z,83.40
2018-03-04T08:00:35.047Z,83.20
2018-03-04T08:03:02.687Z,83.30
2018-03-04T08:05:30.311Z,82.60
2018-03-04T08:07:57.948Z,81.90
2018-03-04T08:10:25.573Z,82.30
2018-03-04T08:12:53.220Z,82.60
2018-03-04T08:15:20.832Z,82.20
2018-03-04T08:17:48.471Z,82.00
2018-03-04T08:20:16.861Z,81.70
2018-03-04T08:22:44.492Z,81.70
2018-03-04T08:25:24.093Z,81.70
2018-03-04T08:30:54.796Z,81.20
2018-03-04T08:33:22.421Z,80.40
2018-03-04T08:35:50.040Z,80.20
2018-03-04T08:38:17.664Z,79.90
2018-03-04T08:40:45.641Z,79.80
2018-03-04T08:43:13.261Z,79.50
2018-03-04T08:45:40.885Z,79.20
2018-03-04T08:48:08.517Z,79.30
2018-03-04T08:50:36.141Z,79.00
2018-03-04T08:53:03.771Z,78.50
2018-03-04T08:55:31.502Z,78.10
2018-03-04T08:57:59.128Z,77.30
2018-03-04T09:00:27.553Z,76.80
2018-03-04T09:02:55.217Z,76.70
2018-03-04T09:05:22.865Z,76.90
2018-03-04T09:07:50.489Z,75.60
2018-03-04T09:10:18.176Z,75.60
2018-03-04T09:12:46.586Z,74.70
2018-03-04T09:15:14.201Z,74.60
2018-03-04T09:17:41.823Z,73.90
2018-03-04T09:20:09.445Z,73.30
2018-03-04T09:22:37.116Z,72.00
2018-03-04T09:25:04.717Z,72.20
2018-03-04T09:27:32.341Z,71.60
2018-03-04T09:30:00.726Z,71.70
2018-03-04T09:32:28.748Z,71.60
2018-03-04T09:34:56.368Z,72.60
2018-03-04T09:37:24.029Z,73.40
2018-03-04T09:39:51.648Z,73.20
2018-03-04T09:42:19.269Z,72.80
2018-03-04T09:44:47.133Z,71.00
2018-03-04T09:47:14.925Z,71.50
2018-03-04T09:49:42.712Z,71.00
2018-03-04T09:52:11.224Z,68.60
2018-03-04T09:54:39.110Z,68.60
2018-03-04T09:57:06.886Z,69.60
2018-03-04T09:59:34.666Z,67.80
2018-03-04T10:02:02.569Z,66.40
2018-03-04T10:04:30.597Z,65.10
2018-03-04T10:06:58.358Z,64.80
2018-03-04T10:09:26.282Z,64.40
2018-03-04T10:12:01.400Z,65.00
2018-03-04T10:14:29.346Z,64.70
2018-03-04T10:17:00.583Z,62.80
2018-03-04T10:19:28.364Z,63.70
2018-03-04T10:21:59.822Z,60.80
2018-03-04T10:24:28.848Z,62.50
2018-03-04T10:26:57.329Z,62.40
2018-03-04T10:29:26.457Z,58.60
2018-03-04T10:31:55.072Z,58.50
2018-03-04T10:34:22.724Z,58.70
2018-03-04T10:36:52.778Z,57.50
2018-03-04T10:39:21.468Z,57.00
2018-03-04T10:41:49.556Z,57.10
2018-03-04T10:44:17.618Z,56.80
2018-03-04T10:46:45.680Z,57.20
2018-03-04T10:49:13.535Z,56.70
2018-03-04T10:51:42.014Z,57.80
2018-03-04T10:54:09.801Z,55.40
2018-03-04T10:56:37.567Z,56.40
2018-03-04T10:59:05.497Z,57.30
2018-03-04T11:01:34.336Z,57.40
2018-03-04T11:04:02.339Z,57.30
2018-03-04T11:06:30.236Z,56.60
2018-03-04T11:08:57.948Z,55.40
2018-03-04T11:11:25.729Z,55.80
2018-03-04T11:13:53.513Z,56.40
2018-03-04T11:16:21.165Z,54.50
2018-03-04T11:18:48.805Z,55.20
2018-03-04T11:21:16.440Z,54.30
2018-03-04T11:23:44.838Z,52.30
2018-03-04T11:26:12.476Z,52.20
2018-03-04T11:28:40.136Z,50.50
2018-03-04T11:31:07.796Z,50.40
2018-03-04T11:33:35.409Z,51.00
2018-03-04T11:36:03.036Z,52.00
2018-03-04T11:38:30.669Z,49.10
2018-03-04T11:40:58.305Z,52.00
2018-03-04T11:43:25.936Z,50.00
2018-03-04T11:45:54.368Z,48.60
2018-03-04T11:48:22.020Z,48.50
2018-03-04T11:50:50.408Z,48.20
2018-03-04T11:53:18.057Z,48.30
2018-03-04T11:55:46.452Z,45.60
2018-03-04T11:58:14.090Z,45.60
2018-03-04T12:00:41.734Z,44.90
2018-03-04T12:03:14.866Z,43.90
2018-03-04T12:05:43.275Z,44.00
2018-03-04T12:08:10.893Z,44.00
2018-03-04T12:10:38.539Z,44.20
2018-03-04T12:13:06.172Z,42.30
2018-03-04T12:15:33.840Z,41.20
2018-03-04T12:18:01.472Z,41.40
2018-03-04T12:20:29.870Z,39.60
2018-03-04T12:22:58.261Z,39.00
2018-03-04T12:25:32.105Z,39.60
2018-03-04T12:27:59.728Z,36.90
2018-03-04T12:30:27.368Z,36.60
2018-03-04T12:32:54.988Z,36.40
2018-03-04T12:35:22.643Z,37.40
2018-03-04T12:37:50.269Z,37.10
2018-03-04T12:40:17.916Z,36.10
2018-03-04T12:42:45.535Z,35.50
2018-03-04T12:45:14.192Z,33.80
2018-03-04T12:47:41.837Z,35.70
2018-03-04T12:50:09.468Z,33.80
2018-03-04T12:52:37.121Z,33.40
2018-03-04T12:55:04.748Z,31.10
2018-03-04T12:57:32.385Z,34.00
2018-03-04T13:00:00.013Z,33.50
2018-03-04T13:02:27.649Z,32.90
2018-03-04T13:04:55.292Z,32.90
2018-03-04T13:07:22.928Z,33.80
2018-03-04T13:09:58.608Z,33.20
2018-03-04T13:12:26.248Z,29.80
2018-03-04T13:14:53.880Z,30.80
2018-03-04T13:17:22.277Z,32.30
2018-03-04T13:19:49.914Z,32.30
2018-03-04T13:22:17.594Z,30.60
2018-03-04T13:24:50.876Z,32.10
2018-03-04T13:27:18.528Z,32.30
2018-03-04T13:29:46.137Z,29.80
2018-03-04T13:32:13.769Z,28.60
2018-03-04T13:34:42.172Z,31.20
2018-03-04T13:37:10.577Z,33.10
2018-03-04T13:39:38.211Z,33.10
2018-03-04T13:42:17.206Z,33.80
2018-03-04T13:44:44.820Z,33.00
2018-03-04T13:47:25.264Z,32.30
2018-03-04T13:49:53.652Z,30.30
2018-03-04T13:52:22.048Z,30.20
2018-03-04T13:54:49.680Z,30.10
2018-03-04T13:57:17.310Z,29.40
2018-03-04T13:59:49.208Z,31.00
2018-03-04T14:02:16.837Z,32.60
2018-03-04T14:04:44.460Z,33.00
2018-03-04T14:07:12.105Z,31.60
2018-03-04T14:09:43.881Z,29.90
2018-03-04T14:12:11.495Z,29.80
2018-03-04T14:14:39.122Z,30.00
2018-03-04T14:17:07.503Z,32.40
2018-03-04T14:19:35.901Z,33.40
2018-03-04T14:22:03.525Z,33.40
2018-03-04T14:24:31.145Z,34.00
2018-03-04T14:26:58.768Z,36.10
2018-03-04T14:29:26.424Z,36.90
2018-03-04T14:31:54.058Z,36.90
2018-03-04T14:34:21.679Z,37.40
2018-03-04T14:36:50.069Z,38.70
2018-03-04T14:39:18.463Z,39.30
2018-03-04T14:41:46.084Z,39.20
2018-03-04T14:44:13.708Z,39.90
2018-03-04T14:46:41.335Z,38.90
2018-03-04T14:49:08.963Z,39.40
2018-03-04T14:51:36.592Z,38.20
2018-03-04T14:54:04.220Z,38.60
2018-03-04T14:56:37.634Z,40.10
2018-03-04T14:59:05.273Z,38.90
2018-03-04T15:01:35.938Z,39.90
2018-03-04T15:04:05.993Z,39.60
2018-03-04T15:06:33.641Z,39.40
2018-03-04T15:09:02.028Z,41.10
2018-03-04T15:11:30.449Z,41.40
2018-03-04T15:13:58.101Z,41.20
2018-03-04T15:16:25.724Z,41.50
2018-03-04T15:18:53.344Z,42.70
2018-03-04T15:21:20.977Z,42.80
2018-03-04T15:23:48.624Z,41.70
2018-03-04T15:26:16.260Z,42.70
2018-03-04T15:28:43.896Z,43.10
2018-03-04T15:31:11.521Z,43.10
2018-03-04T15:33:39.932Z,43.10
2018-03-04T15:36:07.545Z,43.00
2018-03-04T15:38:35.181Z,45.60
2018-03-04T15:41:02.821Z,44.80
2018-03-04T15:43:34.440Z,46.20
2018-03-04T15:46:02.057Z,44.70
2018-03-04T15:48:29.690Z,45.00
2018-03-04T15:50:57.350Z,46.50
2018-03-04T15:53:24.941Z,46.20
2018-03-04T15:55:52.573Z,47.30
2018-03-04T15:58:20.200Z,46.60
2018-03-04T16:00:47.840Z,46.70
2018-03-04T16:06:07.810Z,47.40
2018-03-04T16:08:35.432Z,48.70
2018-03-04T16:11:03.052Z,47.80
2018-03-04T16:13:31.457Z,49.50
2018-03-04T16:15:59.076Z,49.50
2018-03-04T16:18:26.704Z,48.40
2018-03-04T16:20:54.337Z,49.20
2018-03-04T16:23:22.736Z,49.40
2018-03-04T16:25:50.373Z,49.50
2018-03-04T16:28:17.993Z,49.80
2018-03-04T16:30:45.621Z,50.80
2018-03-04T16:33:14.024Z,50.50
2018-03-04T16:35:41.665Z,50.50
2018-03-04T16:38:10.066Z,50.70
2018-03-04T16:40:37.696Z,50.00
2018-03-04T16:43:05.320Z,50.80
2018-03-04T16:45:32.952Z,50.80
2018-03-04T16:48:01.345Z,52.40
2018-03-04T16:50:28.968Z,52.40
2018-03-04T16:52:56.604Z,53.20
2018-03-04T16:55:24.637Z,51.90
2018-03-04T16:57:53.038Z,53.00
2018-03-04T17:00:21.228Z,52.90
2018-03-04T17:02:49.599Z,54.10
2018-03-04T17:05:17.250Z,54.10
2018-03-04T17:07:45.635Z,54.60
2018-03-04T17:10:14.041Z,55.00
2018-03-04T17:12:41.673Z,54.90
2018-03-04T17:15:09.297Z,54.50
2018-03-04T17:17:36.928Z,55.20
2018-03-04T17:20:05.310Z,55.70
2018-03-04T17:22:32.950Z,55.70
2018-03-04T17:25:00.693Z,56.20
2018-03-04T17:27:28.320Z,56.40
2018-03-04T17:29:56.961Z,56.20
2018-03-04T17:32:24.585Z,56.60
2018-03-04T17:34:52.205Z,56.60
2018-03-04T17:37:19.847Z,56.10
2018-03-04T17:39:48.500Z,56.70
2018-03-04T17:42:16.124Z,56.70
2018-03-04T17:44:43.769Z,57.20
2018-03-04T17:47:11.404Z,56.90
2018-03-04T17:49:40.065Z,57.30
2018-03-04T17:52:08.452Z,57.10
2018-03-04T17:54:36.097Z,57.10
2018-03-04T17:57:03.712Z,57.80
2018-03-04T17:59:31.347Z,57.40
2018-03-04T18:01:59.752Z,58.20
2018-03-04T18:04:27.393Z,58.10
2018-03-04T18:06:55.796Z,58.80
2018-03-04T18:09:23.456Z,58.70
2018-03-04T18:11:51.108Z,58.40
2018-03-04T18:14:19.570Z,58.50
2018-03-04T18:16:47.162Z,58.40
2018-03-04T18:19:14.834Z,58.70
2018-03-04T18:21:42.472Z,59.30
2018-03-04T18:24:10.121Z,59.90
2018-03-04T18:26:37.778Z,59.70
2018-03-04T18:29:05.409Z,59.30
2018-03-04T18:31:33.041Z,59.60
2018-03-04T18:34:00.685Z,59.60
2018-03-04T18:36:28.308Z,59.50
2018-03-04T18:38:55.953Z,59.40
2018-03-04T18:41:24.364Z,59.90
2018-03-04T18:43:52.007Z,59.90
2018-03-04T18:46:20.907Z,60.00
2018-03-04T18:48:49.332Z,59.90
2018-03-04T18:51:16.980Z,59.80
2018-03-04T18:53:44.611Z,60.10
2018-03-04T18:56:13.036Z,60.20
2018-03-04T18:58:40.676Z,60.20
2018-03-04T19:01:08.317Z,61.80
2018-03-04T19:03:35.938Z,64.00
2018-03-04T19:06:03.581Z,64.40
2018-03-04T19:08:39.983Z,66.80
2018-03-04T19:11:07.634Z,66.10
2018-03-04T19:13:35.303Z,66.30
2018-03-04T19:16:02.912Z,67.50
2018-03-04T19:18:31.330Z,66.70
2018-03-04T19:20:59.861Z,65.80
2018-03-04T19:23:27.507Z,65.70
2018-03-04T19:25:55.157Z,66.50
2018-03-04T19:28:22.825Z,66.60
2018-03-04T19:30:50.504Z,67.10
2018-03-04T19:33:18.165Z,65.80
2018-03-04T19:35:45.792Z,67.20
2018-03-04T19:38:14.196Z,65.80
2018-03-04T19:40:41.912Z,65.00
2018-03-04T19:43:09.586Z,64.60
2018-03-04T19:45:39.240Z,65.60
2018-03-04T19:48:06.946Z,66.10
2018-03-04T19:50:35.305Z,66.10
2018-03-04T19:53:02.941Z,66.00
2018-03-04T19:55:31.348Z,66.00
2018-03-04T19:57:59.193Z,66.00
2018-03-04T20:00:27.666Z,67.50
2018-03-04T20:02:55.325Z,66.60
2018-03-04T20:05:24.477Z,64.70
2018-03-04T20:07:52.140Z,64.70
2018-03-04T20:10:19.826Z,65.10
2018-03-04T20:12:47.469Z,64.80
2018-03-04T20:15:15.105Z,65.50
2018-03-04T20:17:42.756Z,65.70
2018-03-04T20:20:10.393Z,64.80
2018-03-04T20:22:38.053Z,65.50
2018-03-04T20:25:05.701Z,65.30
2018-03-04T20:27:33.340Z,66.40
2018-03-04T20:30:01.750Z,65.70
2018-03-04T20:32:29.413Z,66.30
2018-03-04T20:34:58.107Z,66.20
2018-03-04T20:37:25.752Z,65.80
2018-03-04T20:39:53.368Z,65.30
2018-03-04T20:42:20.997Z,66.00
2018-03-04T20:44:48.638Z,66.80
2018-03-04T20:47:16.272Z,65.60
2018-03-04T20:49:43.903Z,65.40
2018-03-04T20:52:11.580Z,65.80
2018-03-04T20:54:39.213Z,65.50
2018-03-04T20:57:08.604Z,65.40
2018-03-04T20:59:36.233Z,65.30
2018-03-04T21:02:03.844Z,66.00
2018-03-04T21:04:31.472Z,65.50
2018-03-04T21:06:59.140Z,65.80
2018-03-04T21:09:26.733Z,65.50
2018-03-04T21:11:54.355Z,65.70
2018-03-04T21:14:21.994Z,65.70
2018-03-04T21:16:50.380Z,65.80
2018-03-04T21:19:18.058Z,65.70
2018-03-04T21:21:45.681Z,66.00
2018-03-04T21:24:13.337Z,65.30
2018-03-04T21:26:40.944Z,66.20
2018-03-04T21:29:08.581Z,65.60
2018-03-04T21:31:36.205Z,65.50
2018-03-04T21:34:03.828Z,65.80
2018-03-04T21:36:46.641Z,66.70
2018-03-04T21:39:15.037Z,65.60
2018-03-04T21:41:42.656Z,65.50
2018-03-04T21:44:10.549Z,65.80
2018-03-04T21:46:38.169Z,65.70
2018-03-04T21:49:05.792Z,65.30
2018-03-04T21:51:34.188Z,65.80
2018-03-04T21:54:02.581Z,65.20
2018-03-04T21:56:30.218Z,65.20
2018-03-04T21:58:57.837Z,65.20
2018-03-04T22:01:25.476Z,65.00
2018-03-04T22:03:53.868Z,65.20
2018-03-04T22:06:21.500Z,65.20
2018-03-04T22:08:49.128Z,65.40
2018-03-04T22:11:16.813Z,65.00
2018-03-04T22:13:44.376Z,65.60
2018-03-04T22:16:12.001Z,65.10
2018-03-04T22:18:39.627Z,65.40
2018-03-04T22:21:08.012Z,65.90
2018-03-04T22:23:35.639Z,65.80
2018-03-04T22:26:08.756Z,66.60
2018-03-04T22:28:36.392Z,66.50
2018-03-04T22:31:04.016Z,66.70
2018-03-04T22:33:32.409Z,67.10
2018-03-04T22:36:00.082Z,67.10
2018-03-04T22:38:27.709Z,67.80
2018-03-04T22:40:55.369Z,67.60
2018-03-04T22:43:22.988Z,68.00
2018-03-04T22:45:50.612Z,68.10
2018-03-04T22:48:18.247Z,68.30
2018-03-04T22:50:45.869Z,68.40
2018-03-04T22:53:13.488Z,68.70
2018-03-04T22:55:41.120Z,68.40
2018-03-04T22:58:08.749Z,68.60
2018-03-04T23:00:36.385Z,69.00
2018-03-04T23:03:04.010Z,68.90
2018-03-04T23:05:31.645Z,68.70
2018-03-04T23:08:00.042Z,68.80
2018-03-04T23:10:27.669Z,68.80
2018-03-04T23:12:55.297Z,69.00
2018-03-04T23:15:22.929Z,68.80
2018-03-04T23:17:50.553Z,68.90
2018-03-04T23:20:18.177Z,69.50
2018-03-04T23:22:45.801Z,69.50
2018-03-04T23:25:13.422Z,69.10
2018-03-04T23:27:41.049Z,69.10
2018-03-04T23:30:09.440Z,69.20
2018-03-04T23:32:37.077Z,69.20
2018-03-04T23:35:04.701Z,69.00
2018-03-04T23:37:32.326Z,68.80
2018-03-04T23:39:59.952Z,68.80
2018-03-04T23:42:27.569Z,69.10
2018-03-04T23:44:55.960Z,68.70
2018-03-04T23:47:24.352Z,68.80
2018-03-04T23:49:52.741Z,68.70
2018-03-04T23:52:20.364Z,68.70
2018-03-04T23:54:47.992Z,68.60
2018-03-04T23:57:15.637Z,68.40
2018-03-04T23:59:44.021Z,68.80
